createdAt,value
2023-03-30T00:03:07.188Z,99.90
2023-03-30T00:06:29.344Z,1.00
2023-03-30T00:09:54.673Z,1.00
2023-03-30T00:13:16.939Z,1.00
2023-03-30T00:16:39.025Z,1.00
2023-03-30T00:20:11.642Z,1.00
2023-03-30T00:23:34.426Z,1.00
2023-03-30T00:26:56.768Z,1.00
2023-03-30T00:30:20.294Z,1.00
2023-03-30T00:33:47.066Z,1.00
2023-03-30T00:37:10.296Z,1.00
2023-03-30T00:40:34.333Z,1.00
2023-03-30T00:44:05.855Z,1.00
2023-03-30T00:47:29.050Z,1.00
2023-03-30T00:51:17.621Z,30.10
2023-03-30T00:54:40.095Z,25.50
2023-03-30T00:58:02.542Z,9.30
2023-03-30T01:01:28.968Z,1.00
2023-03-30T01:04:59.331Z,30.00
2023-03-30T01:08:24.158Z,34.90
2023-03-30T01:11:46.649Z,99.90
2023-03-30T01:15:09.427Z,99.90
2023-03-30T01:18:55.193Z,99.90
2023-03-30T01:22:22.972Z,99.90
2023-03-30T01:26:07.404Z,99.90
2023-03-30T01:29:53.444Z,99.90
2023-03-30T01:33:31.547Z,99.90
2023-03-30T01:37:22.741Z,99.90
2023-03-30T01:41:02.729Z,99.90
2023-03-30T01:44:49.019Z,99.90
2023-03-30T01:48:11.027Z,99.90
2023-03-30T01:52:03.290Z,99.90
2023-03-30T01:55:30.922Z,99.90
2023-03-30T01:59:04.427Z,1.00
2023-03-30T02:02:30.979Z,1.00
2023-03-30T02:05:59.039Z,1.00
2023-03-30T02:09:24.607Z,1.00
2023-03-30T02:12:48.991Z,1.00
2023-03-30T02:16:26.469Z,1.00
2023-03-30T02:19:49.644Z,1.00
2023-03-30T02:23:11.755Z,1.20
2023-03-30T02:26:36.934Z,11.60
2023-03-30T02:29:59.255Z,99.90
2023-03-30T02:33:30.881Z,99.90
2023-03-30T02:37:27.775Z,99.90
2023-03-30T02:40:55.467Z,99.90
2023-03-30T02:44:41.856Z,99.90
2023-03-30T02:48:18.817Z,99.90
2023-03-30T02:51:49.269Z,99.90
2023-03-30T02:55:35.971Z,99.90
2023-03-30T02:59:17.569Z,99.90
2023-03-30T03:02:49.611Z,99.90
2023-03-30T03:06:20.529Z,99.90
2023-03-30T03:09:47.420Z,99.90
2023-03-30T03:13:11.081Z,99.90
2023-03-30T03:16:37.010Z,99.90
2023-03-30T03:20:10.603Z,99.90
2023-03-30T03:23:34.325Z,1.00
2023-03-30T03:26:57.013Z,1.00
2023-03-30T03:30:19.907Z,1.00
2023-03-30T03:33:51.951Z,1.00
2023-03-30T03:37:24.487Z,1.00
2023-03-30T03:40:54.369Z,1.00
2023-03-30T03:44:16.459Z,1.00
2023-03-30T03:47:38.875Z,1.00
2023-03-30T03:54:27.178Z,1.00
2023-03-30T03:57:49.215Z,1.00
2023-03-30T04:01:14.399Z,1.00
2023-03-30T04:04:36.607Z,1.00
2023-03-30T04:07:58.986Z,1.00
2023-03-30T04:11:21.628Z,1.00
2023-03-30T04:15:02.104Z,1.00
2023-03-30T04:18:57.728Z,1.00
2023-03-30T04:22:43.213Z,1.00
2023-03-30T04:26:41.797Z,1.00
2023-03-30T04:30:30.680Z,1.00
2023-03-30T04:34:21.858Z,99.90
2023-03-30T04:38:00.632Z,99.90
2023-03-30T04:41:36.194Z,99.90
2023-03-30T04:45:27.643Z,99.90
2023-03-30T04:49:22.605Z,99.90
2023-03-30T04:53:21.062Z,99.90
2023-03-30T04:57:03.484Z,99.90
2023-03-30T05:00:34.778Z,99.90
2023-03-30T05:04:15.759Z,99.90
2023-03-30T05:07:58.387Z,99.90
2023-03-30T05:11:49.855Z,99.90
2023-03-30T05:15:38.970Z,99.90
2023-03-30T05:19:22.675Z,99.90
2023-03-30T05:23:19.543Z,99.90
2023-03-30T05:27:03.706Z,99.90
2023-03-30T05:30:55.770Z,99.90
2023-03-30T05:34:57.170Z,62.70
2023-03-30T05:38:36.138Z,1.00
2023-03-30T05:42:19.790Z,1.00
2023-03-30T05:46:02.685Z,1.00
2023-03-30T05:49:53.828Z,99.90
2023-03-30T05:53:29.256Z,1.00
2023-03-30T05:57:19.587Z,99.90
2023-03-30T06:00:52.818Z,99.90
2023-03-30T06:04:28.725Z,99.90
2023-03-30T06:07:51.257Z,99.90
2023-03-30T06:11:14.179Z,99.90
2023-03-30T06:15:03.362Z,99.90
2023-03-30T06:18:36.981Z,99.90
2023-03-30T06:22:02.058Z,99.90
2023-03-30T06:25:39.738Z,99.90
2023-03-30T06:29:02.505Z,58.50
2023-03-30T06:32:25.461Z,87.20
2023-03-30T06:36:14.931Z,99.90
2023-03-30T06:39:41.799Z,99.90
2023-03-30T06:43:04.043Z,99.90
2023-03-30T06:46:35.270Z,99.90
2023-03-30T06:49:57.332Z,99.90
2023-03-30T06:53:45.213Z,99.90
2023-03-30T06:57:08.007Z,99.90
2023-03-30T07:00:30.164Z,99.90
2023-03-30T07:04:11.098Z,28.20
2023-03-30T07:07:53.435Z,79.20
2023-03-30T07:11:16.211Z,31.40
2023-03-30T07:14:39.143Z,94.70
2023-03-30T07:18:01.370Z,57.00
2023-03-30T07:21:23.851Z,99.90
2023-03-30T07:24:45.931Z,99.90
2023-03-30T07:28:08.117Z,1.00
2023-03-30T07:31:30.768Z,1.00
2023-03-30T07:34:54.697Z,1.00
2023-03-30T07:38:19.540Z,86.30
2023-03-30T07:41:46.931Z,79.50
2023-03-30T07:45:10.299Z,99.90
2023-03-30T07:48:33.256Z,1.00
2023-03-30T07:51:55.774Z,56.10
2023-03-30T07:55:22.486Z,1.00
2023-03-30T07:58:50.873Z,99.90
2023-03-30T08:02:16.148Z,1.00
2023-03-30T08:05:51.883Z,99.90
2023-03-30T08:09:15.468Z,1.00
2023-03-30T08:12:38.272Z,99.90
2023-03-30T08:16:01.442Z,99.90
2023-03-30T08:19:24.890Z,99.90
2023-03-30T08:22:48.143Z,1.00
2023-03-30T08:26:10.406Z,99.90
2023-03-30T08:29:33.861Z,99.90
2023-03-30T08:32:59.018Z,99.90
2023-03-30T08:36:21.144Z,99.90
2023-03-30T08:39:43.681Z,99.90
2023-03-30T08:43:33.304Z,99.90
2023-03-30T08:46:57.903Z,99.90
2023-03-30T08:50:38.145Z,99.90
2023-03-30T08:54:22.480Z,99.90
2023-03-30T08:57:56.332Z,99.90
2023-03-30T09:01:25.884Z,58.70
2023-03-30T09:05:02.279Z,76.30
2023-03-30T09:08:29.322Z,95.40
2023-03-30T09:12:08.757Z,91.80
2023-03-30T09:15:42.989Z,99.50
2023-03-30T09:19:12.667Z,98.40
2023-03-30T09:22:42.891Z,98.10
2023-03-30T09:26:15.773Z,99.90
2023-03-30T09:29:47.592Z,99.90
2023-03-30T09:33:33.191Z,99.90
2023-03-30T09:37:04.924Z,99.90
2023-03-30T09:40:34.503Z,99.90
2023-03-30T09:43:58.852Z,99.90
2023-03-30T09:47:27.846Z,99.90
2023-03-30T09:50:49.917Z,99.90
2023-03-30T09:54:14.682Z,99.90
2023-03-30T09:57:40.172Z,99.90
2023-03-30T10:01:18.475Z,99.90
2023-03-30T10:04:57.691Z,99.90
2023-03-30T10:08:24.922Z,99.90
2023-03-30T10:11:51.911Z,99.90
2023-03-30T10:15:19.326Z,95.90
2023-03-30T10:18:44.389Z,99.90
2023-03-30T10:22:17.904Z,99.90
2023-03-30T10:25:43.684Z,64.90
2023-03-30T10:29:11.043Z,48.10
2023-03-30T10:32:34.496Z,92.70
2023-03-30T10:36:01.094Z,93.60
2023-03-30T10:39:33.919Z,95.90
2023-03-30T10:42:57.758Z,62.70
2023-03-30T10:46:23.479Z,66.50
2023-03-30T10:50:03.893Z,1.00
2023-03-30T10:53:39.360Z,66.60
2023-03-30T10:57:16.406Z,24.00
2023-03-30T11:00:59.621Z,85.70
2023-03-30T11:04:44.896Z,40.90
2023-03-30T11:08:12.577Z,96.20
2023-03-30T11:11:40.710Z,45.80
2023-03-30T11:15:09.795Z,67.00
2023-03-30T11:19:15.046Z,28.70
2023-03-30T11:22:43.962Z,39.30
2023-03-30T11:26:12.798Z,12.40
2023-03-30T11:29:38.581Z,5.50
2023-03-30T11:33:00.756Z,4.50
2023-03-30T11:36:34.323Z,20.00
2023-03-30T11:40:20.274Z,65.60
2023-03-30T11:43:56.344Z,1.00
2023-03-30T11:47:29.367Z,1.00
2023-03-30T11:51:10.275Z,1.00
2023-03-30T11:55:03.704Z,1.00
2023-03-30T11:58:36.637Z,1.00
2023-03-30T12:02:03.287Z,1.00
2023-03-30T12:05:33.438Z,1.00
2023-03-30T12:09:21.217Z,1.00
2023-03-30T12:12:49.897Z,1.00
2023-03-30T12:16:22.246Z,1.00
2023-03-30T12:19:56.840Z,1.00
2023-03-30T12:23:34.333Z,1.00
2023-03-30T12:27:05.240Z,1.00
2023-03-30T12:30:45.075Z,1.00
2023-03-30T12:34:10.074Z,1.00
2023-03-30T12:37:38.073Z,1.00
2023-03-30T12:41:14.317Z,1.00
2023-03-30T12:45:07.798Z,1.00
2023-03-30T12:48:29.866Z,1.00
2023-03-30T12:52:14.231Z,1.00
2023-03-30T12:56:05.740Z,1.00
2023-03-30T12:59:59.734Z,1.00
2023-03-30T13:03:30.746Z,1.00
2023-03-30T13:06:58.149Z,1.00
2023-03-30T13:10:29.378Z,1.00
2023-03-30T13:13:53.365Z,1.00
2023-03-30T13:17:22.178Z,1.00
2023-03-30T13:20:56.347Z,1.00
2023-03-30T13:24:36.242Z,1.00
2023-03-30T13:28:17.936Z,1.00
2023-03-30T13:31:59.648Z,1.00
2023-03-30T13:35:34.071Z,1.00
2023-03-30T13:39:22.776Z,1.00
2023-03-30T13:42:59.731Z,1.00
2023-03-30T13:46:36.781Z,1.00
2023-03-30T13:50:01.062Z,1.00
2023-03-30T13:53:29.399Z,1.00
2023-03-30T13:57:08.511Z,1.00
2023-03-30T14:00:52.447Z,1.00
2023-03-30T14:04:15.615Z,1.00
2023-03-30T14:07:43.594Z,1.00
2023-03-30T14:11:13.518Z,1.00
2023-03-30T14:14:37.383Z,1.00
2023-03-30T14:18:01.896Z,1.00
2023-03-30T14:21:24.251Z,1.00
2023-03-30T14:25:01.110Z,1.00
2023-03-30T14:28:23.198Z,1.00
2023-03-30T14:31:56.808Z,1.00
2023-03-30T14:35:28.942Z,1.00
2023-03-30T14:38:54.254Z,1.00
2023-03-30T14:42:19.384Z,1.00
2023-03-30T14:45:42.384Z,1.00
2023-03-30T14:49:05.397Z,1.00
2023-03-30T14:52:32.865Z,1.00
2023-03-30T14:55:57.869Z,1.00
2023-03-30T14:59:20.859Z,1.00
2023-03-30T15:02:44.240Z,1.00
2023-03-30T15:06:08.176Z,1.00
2023-03-30T15:09:38.555Z,1.00
2023-03-30T15:13:02.695Z,1.00
2023-03-30T15:16:29.135Z,1.00
2023-03-30T15:19:54.243Z,1.00
2023-03-30T15:23:19.028Z,1.00
2023-03-30T15:26:45.563Z,1.00
2023-03-30T15:30:14.532Z,1.00
2023-03-30T15:33:45.163Z,1.00
2023-03-30T15:37:22.964Z,1.00
2023-03-30T15:40:50.158Z,1.00
2023-03-30T15:44:17.326Z,1.00
2023-03-30T15:47:40.180Z,1.00
2023-03-30T15:51:22.603Z,1.00
2023-03-30T15:54:55.301Z,1.00
2023-03-30T15:58:23.869Z,1.00
2023-03-30T16:02:02.963Z,1.00
2023-03-30T16:05:29.194Z,1.00
2023-03-30T16:08:51.819Z,1.00
2023-03-30T16:12:18.054Z,1.00
2023-03-30T16:15:40.705Z,1.00
2023-03-30T16:19:02.817Z,1.00
2023-03-30T16:22:24.772Z,1.00
2023-03-30T16:25:53.648Z,1.00
2023-03-30T16:29:27.698Z,1.00
2023-03-30T16:32:50.117Z,1.00
2023-03-30T16:36:15.231Z,1.00
2023-03-30T16:39:37.283Z,1.00
2023-03-30T16:43:00.464Z,1.00
2023-03-30T16:46:28.825Z,1.00
2023-03-30T16:49:51.901Z,1.00
2023-03-30T16:53:17.813Z,1.00
2023-03-30T16:56:46.886Z,1.00
2023-03-30T17:00:28.917Z,1.00
2023-03-30T17:04:03.799Z,1.00
2023-03-30T17:07:42.203Z,1.00
2023-03-30T17:11:05.208Z,1.00
2023-03-30T17:14:27.751Z,1.00
2023-03-30T17:17:50.335Z,1.00
2023-03-30T17:21:16.541Z,1.00
2023-03-30T17:24:49.546Z,46.60
2023-03-30T17:28:29.544Z,21.40
2023-03-30T17:31:51.726Z,36.80
2023-03-30T17:35:14.384Z,64.60
2023-03-30T17:38:44.797Z,99.90
2023-03-30T17:42:07.640Z,99.90
2023-03-30T17:45:34.846Z,99.90
2023-03-30T17:49:01.381Z,99.90
2023-03-30T17:52:30.490Z,99.90
2023-03-30T17:55:53.233Z,99.90
2023-03-30T17:59:16.527Z,99.90
2023-03-30T18:02:38.681Z,99.90
2023-03-30T18:06:02.370Z,99.90
2023-03-30T18:09:24.371Z,99.90
2023-03-30T18:12:46.901Z,99.90
2023-03-30T18:16:12.851Z,99.90
2023-03-30T18:19:34.833Z,99.90
2023-03-30T18:22:57.355Z,1.00
2023-03-30T18:26:19.573Z,1.00
2023-03-30T18:29:45.148Z,1.00
2023-03-30T18:33:11.272Z,1.00
2023-03-30T18:36:34.087Z,1.00
2023-03-30T18:40:01.487Z,99.90
2023-03-30T18:43:26.842Z,99.90
2023-03-30T18:46:55.273Z,99.90
2023-03-30T18:50:44.469Z,99.90
2023-03-30T18:54:07.281Z,99.90
2023-03-30T18:57:29.444Z,99.90
2023-03-30T19:00:53.421Z,99.90
2023-03-30T19:04:15.687Z,99.90
2023-03-30T19:07:38.597Z,99.90
2023-03-30T19:11:01.070Z,99.90
2023-03-30T19:14:23.634Z,99.90
2023-03-30T19:17:47.012Z,99.90
2023-03-30T19:21:18.922Z,99.90
2023-03-30T19:24:41.756Z,99.90
2023-03-30T19:28:05.656Z,99.90
2023-03-30T19:31:28.062Z,99.90
2023-03-30T19:34:50.437Z,1.00
2023-03-30T19:38:13.799Z,1.00
2023-03-30T19:41:36.282Z,1.00
2023-03-30T19:44:59.818Z,1.00
2023-03-30T19:48:23.030Z,1.00
2023-03-30T19:51:46.130Z,1.00
2023-03-30T19:55:12.434Z,1.00
2023-03-30T19:58:34.503Z,1.00
2023-03-30T20:01:56.972Z,1.00
2023-03-30T20:05:24.886Z,1.00
2023-03-30T20:08:47.045Z,1.00
2023-03-30T20:12:09.742Z,1.00
2023-03-30T20:15:32.971Z,1.00
2023-03-30T20:18:56.767Z,1.00
2023-03-30T20:22:19.122Z,27.20
2023-03-30T20:26:00.312Z,96.00
2023-03-30T20:29:23.218Z,99.90
2023-03-30T20:33:04.403Z,99.90
2023-03-30T20:36:30.064Z,99.90
2023-03-30T20:39:52.726Z,99.90
2023-03-30T20:43:15.603Z,99.90
2023-03-30T20:46:42.888Z,99.90
2023-03-30T20:50:16.176Z,99.90
2023-03-30T20:53:39.610Z,99.90
2023-03-30T20:57:02.801Z,1.00
2023-03-30T21:00:25.757Z,1.00
2023-03-30T21:03:50.209Z,73.50
2023-03-30T21:07:12.904Z,99.90
2023-03-30T21:10:35.138Z,99.90
2023-03-30T21:13:57.358Z,99.90
2023-03-30T21:17:19.796Z,99.90
2023-03-30T21:20:41.981Z,99.90
2023-03-30T21:24:09.323Z,1.00
2023-03-30T21:27:32.600Z,1.00
2023-03-30T21:30:59.636Z,1.00
2023-03-30T21:34:22.628Z,1.00
2023-03-30T21:37:45.344Z,1.00
2023-03-30T21:41:11.736Z,1.00
2023-03-30T21:44:35.776Z,1.00
2023-03-30T21:47:59.326Z,1.00
2023-03-30T21:51:24.428Z,1.00
2023-03-30T21:54:53.582Z,7.20
2023-03-30T21:58:16.863Z,37.70
2023-03-30T22:01:39.456Z,62.00
2023-03-30T22:05:01.529Z,34.30
2023-03-30T22:08:23.560Z,17.30
2023-03-30T22:11:48.460Z,30.00
2023-03-30T22:15:10.811Z,52.40
2023-03-30T22:18:33.572Z,32.00
2023-03-30T22:21:55.543Z,29.80
2023-03-30T22:25:17.975Z,18.40
2023-03-30T22:28:40.497Z,15.70
2023-03-30T22:32:02.566Z,1.60
2023-03-30T22:35:24.798Z,1.00
2023-03-30T22:38:48.461Z,1.00
2023-03-30T22:42:10.398Z,1.00
2023-03-30T22:45:32.699Z,1.00
2023-03-30T22:48:55.757Z,1.00
2023-03-30T22:52:20.623Z,1.00
2023-03-30T22:55:42.705Z,1.00
2023-03-30T22:59:08.232Z,1.00
2023-03-30T23:02:31.399Z,1.00
2023-03-30T23:05:53.653Z,1.00
2023-03-30T23:09:16.291Z,1.00
2023-03-30T23:12:38.228Z,1.00
2023-03-30T23:16:00.283Z,1.00
2023-03-30T23:19:22.388Z,1.00
2023-03-30T23:22:44.573Z,1.00
2023-03-30T23:26:09.739Z,1.00
2023-03-30T23:29:32.131Z,2.70
2023-03-30T23:32:56.499Z,1.00
2023-03-30T23:36:19.192Z,20.50
2023-03-30T23:39:41.499Z,29.60
2023-03-30T23:43:03.583Z,50.70
2023-03-30T23:46:25.879Z,55.00
2023-03-30T23:49:51.124Z,25.80
2023-03-30T23:53:16.383Z,13.10
2023-03-30T23:56:42.110Z,1.00
